Time;durP1;ratioP1;P1;durP2;ratioP2;P2;SDS_P1;SDS_P2;PMS_P1;PMS_P2;Temp;Humidity;BMP_temperature;BMP_pressure;BME280_temperature;BME280_humidity;BME280_pressure;Samples;Min_cycle;Max_cycle;Signal;HPM_P1;HPM_P2
2023/09/30 00:04:11;;;;;;;8.52;1.35;;;;;;;18.77;65.10;101121.16;10427879;28;20041;-57
2023/09/30 00:09:13;;;;;;;5.55;1.50;;;;;;;18.80;65.01;101145.31;10412155;28;20235;-56
2023/09/30 00:14:14;;;;;;;7.97;1.58;;;;;;;18.76;65.14;101146.75;10430942;28;20107;-57
2023/09/30 00:19:16;;;;;;;4.72;1.23;;;;;;;18.69;65.31;101158.69;10423424;28;20055;-57
2023/09/30 00:24:17;;;;;;;10.63;1.83;;;;;;;18.75;65.09;101164.13;10423406;28;20332;-57
2023/09/30 00:29:19;;;;;;;6.78;1.92;;;;;;;18.75;65.08;101166.03;10429359;28;20099;-56
2023/09/30 00:34:21;;;;;;;7.40;1.73;;;;;;;18.69;64.90;101161.41;10433122;28;20045;-56
2023/09/30 00:39:22;;;;;;;7.30;2.10;;;;;;;18.68;64.96;101165.16;10430287;28;20048;-57
2023/09/30 00:44:27;;;;;;;6.72;1.65;;;;;;;18.77;64.83;101175.66;10428996;28;20068;-56
2023/09/30 00:49:29;;;;;;;5.97;1.88;;;;;;;18.76;64.58;101186.75;10427518;28;20147;-56
2023/09/30 00:54:31;;;;;;;8.65;1.95;;;;;;;18.74;64.68;101175.22;10423091;28;20537;-56
2023/09/30 00:59:33;;;;;;;5.10;2.13;;;;;;;18.71;64.71;101181.94;10422174;28;20049;-56
2023/09/30 01:04:35;;;;;;;8.18;2.38;;;;;;;18.62;65.00;101178.59;10422188;28;20052;-57
2023/09/30 01:09:37;;;;;;;6.80;1.48;;;;;;;18.63;64.62;101177.53;10416722;28;20415;-56
2023/09/30 01:14:40;;;;;;;8.45;1.90;;;;;;;18.53;64.94;101182.56;10427050;28;20476;-56
2023/09/30 01:19:44;;;;;;;8.65;1.75;;;;;;;18.60;64.58;101194.31;10423495;28;20044;-56
2023/09/30 01:24:47;;;;;;;4.20;1.40;;;;;;;18.70;64.09;101203.94;10426286;28;20116;-56
2023/09/30 01:29:49;;;;;;;8.85;1.98;;;;;;;18.76;63.96;101209.41;10427202;28;20055;-56
2023/09/30 01:34:50;;;;;;;9.18;2.28;;;;;;;18.73;64.00;101208.97;10425097;28;20037;-56
2023/09/30 01:39:54;;;;;;;5.15;2.13;;;;;;;18.79;63.88;101198.09;10424326;28;20045;-57
2023/09/30 01:44:57;;;;;;;8.68;1.67;;;;;;;18.70;63.76;101206.66;10431145;28;20075;-56
2023/09/30 01:49:59;;;;;;;9.05;1.70;;;;;;;18.66;63.70;101206.25;10426817;28;20053;-55
2023/09/30 01:55:00;;;;;;;4.75;1.33;;;;;;;18.45;63.73;101198.28;10424412;28;20051;-56
2023/09/30 02:00:03;;;;;;;6.57;1.65;;;;;;;18.31;63.78;101191.97;10425685;28;20056;-56
2023/09/30 02:05:07;;;;;;;6.25;1.30;;;;;;;18.12;63.84;101194.41;10428421;28;20046;-55
2023/09/30 02:10:09;;;;;;;11.93;2.47;;;;;;;17.86;64.01;101197.06;10422798;28;20053;-56
2023/09/30 02:15:12;;;;;;;5.43;1.63;;;;;;;17.77;64.03;101215.38;10424210;28;20056;-57
2023/09/30 02:20:15;;;;;;;10.57;2.05;;;;;;;17.72;64.03;101210.56;10422607;28;20049;-56
2023/09/30 02:25:18;;;;;;;5.78;1.55;;;;;;;17.67;64.07;101217.66;10424072;28;20076;-57
2023/09/30 02:30:20;;;;;;;7.22;2.13;;;;;;;17.47;64.43;101218.38;10422501;28;20049;-55
2023/09/30 02:35:22;;;;;;;7.28;1.40;;;;;;;17.36;64.51;101227.09;10422768;28;20580;-55
2023/09/30 02:40:25;;;;;;;7.20;2.50;;;;;;;17.33;64.74;101208.47;10424111;28;20132;-56
2023/09/30 02:45:26;;;;;;;6.75;2.25;;;;;;;17.38;64.39;101204.13;10425793;28;20056;-56
2023/09/30 02:50:28;;;;;;;8.63;2.60;;;;;;;17.41;64.19;101206.41;10424980;28;20044;-55
2023/09/30 02:55:29;;;;;;;6.82;3.17;;;;;;;17.28;64.71;101228.09;10407238;28;20056;-55
2023/09/30 03:00:32;;;;;;;7.43;2.63;;;;;;;17.21;64.66;101238.06;10424655;28;20056;-55
2023/09/30 03:05:34;;;;;;;6.97;2.83;;;;;;;17.17;64.65;101251.19;10418369;28;20136;-56
2023/09/30 03:10:40;;;;;;;9.82;3.58;;;;;;;17.07;64.89;101231.69;10418037;28;20053;-56
2023/09/30 03:15:42;;;;;;;12.57;3.88;;;;;;;17.07;64.79;101228.16;10423321;28;20057;-55
2023/09/30 03:20:43;;;;;;;9.25;3.08;;;;;;;17.03;65.02;101236.69;10421301;28;20051;-55
2023/09/30 03:25:45;;;;;;;8.48;4.25;;;;;;;16.97;65.28;101236.63;10419084;28;20047;-55
2023/09/30 03:30:46;;;;;;;9.55;3.35;;;;;;;16.93;65.27;101222.59;10423288;28;20064;-56
2023/09/30 03:35:48;;;;;;;11.07;4.13;;;;;;;16.94;65.27;101234.28;10424749;28;20049;-56
2023/09/30 03:40:50;;;;;;;9.60;2.92;;;;;;;16.73;65.75;101254.97;10424262;28;20072;-55
2023/09/30 03:45:53;;;;;;;11.45;3.08;;;;;;;16.69;65.94;101263.72;10421293;28;20064;-56
2023/09/30 03:50:55;;;;;;;7.28;2.90;;;;;;;16.74;65.55;101267.50;10420436;28;20041;-55
2023/09/30 03:55:56;;;;;;;8.15;2.80;;;;;;;16.75;65.70;101266.50;10421408;28;20041;-57
2023/09/30 04:00:58;;;;;;;8.02;3.30;;;;;;;16.79;65.48;101284.06;10415292;28;20056;-56
2023/09/30 04:06:01;;;;;;;12.80;3.50;;;;;;;16.81;65.48;101273.88;10419272;28;20077;-55
2023/09/30 04:11:03;;;;;;;6.03;2.47;;;;;;;16.81;65.92;101256.72;10423055;28;20553;-56
2023/09/30 04:16:04;;;;;;;11.50;2.80;;;;;;;16.72;65.85;101260.59;10419644;28;20677;-56
2023/09/30 04:21:07;;;;;;;9.38;3.03;;;;;;;16.70;66.28;101276.25;10418793;28;20488;-57
2023/09/30 04:26:09;;;;;;;12.60;3.50;;;;;;;16.68;66.17;101284.56;10417207;28;20049;-57
2023/09/30 04:31:13;;;;;;;10.20;3.30;;;;;;;16.70;66.12;101281.69;10401558;28;20045;-55
2023/09/30 04:36:15;;;;;;;7.10;2.60;;;;;;;16.71;66.35;101295.06;10426442;28;20145;-55
2023/09/30 04:41:16;;;;;;;9.13;2.88;;;;;;;16.68;66.44;101290.00;10424609;28;20045;-55
2023/09/30 04:46:20;;;;;;;10.02;3.50;;;;;;;16.63;66.38;101293.31;10426192;28;20065;-56
2023/09/30 04:51:25;;;;;;;5.97;2.90;;;;;;;16.58;66.40;101287.59;10406802;28;20133;-55
2023/09/30 04:56:27;;;;;;;10.32;3.97;;;;;;;16.51;66.45;101286.72;10414158;28;20046;-56
2023/09/30 05:01:29;;;;;;;12.32;3.85;;;;;;;16.50;66.73;101297.75;10425804;28;20049;-57
2023/09/30 05:06:32;;;;;;;9.43;3.50;;;;;;;16.48;66.59;101288.97;10426721;28;20144;-55
2023/09/30 05:11:35;;;;;;;11.73;3.63;;;;;;;16.50;66.74;101290.44;10425233;28;20061;-55
2023/09/30 05:16:37;;;;;;;7.72;3.25;;;;;;;16.51;66.81;101296.72;10423755;28;20597;-54
2023/09/30 05:21:38;;;;;;;9.63;3.72;;;;;;;16.51;66.84;101291.28;10426344;28;20045;-58
2023/09/30 05:26:40;;;;;;;7.35;2.92;;;;;;;16.53;66.77;101290.06;10421056;28;20504;-56
2023/09/30 05:31:41;;;;;;;6.45;2.90;;;;;;;16.54;66.80;101299.88;10424600;28;20334;-56
2023/09/30 05:36:43;;;;;;;7.35;3.13;;;;;;;16.53;66.86;101305.50;10421937;28;20058;-57
2023/09/30 05:41:46;;;;;;;12.65;3.60;;;;;;;16.46;66.81;101319.00;10427079;28;20075;-60
2023/09/30 05:46:48;;;;;;;9.93;2.65;;;;;;;16.44;66.83;101319.19;10424678;28;20057;-57
2023/09/30 05:51:50;;;;;;;11.65;3.90;;;;;;;16.38;67.09;101317.25;10424479;28;20060;-58
2023/09/30 05:56:52;;;;;;;12.32;3.78;;;;;;;16.33;67.17;101329.69;10423615;28;20412;-57
2023/09/30 06:01:53;;;;;;;11.00;3.25;;;;;;;16.30;67.10;101322.78;10416885;28;20056;-58
2023/09/30 06:06:55;;;;;;;11.98;4.40;;;;;;;16.24;67.20;101324.38;10425152;28;20041;-57
2023/09/30 06:11:57;;;;;;;8.35;3.90;;;;;;;16.11;67.33;101337.75;10426911;28;20061;-56
2023/09/30 06:16:58;;;;;;;13.98;4.53;;;;;;;16.10;67.46;101341.53;10427010;28;20044;-58
2023/09/30 06:22:00;;;;;;;12.07;4.28;;;;;;;16.08;67.36;101346.28;10428024;28;20069;-59
2023/09/30 06:27:01;;;;;;;11.93;4.47;;;;;;;16.04;67.85;101347.69;10423974;28;20041;-60
2023/09/30 06:32:03;;;;;;;14.07;4.85;;;;;;;15.96;68.05;101366.78;10427903;28;20033;-59
2023/09/30 06:37:04;;;;;;;11.15;5.45;;;;;;;15.92;67.87;101358.16;10423110;28;20057;-59
2023/09/30 06:42:07;;;;;;;7.30;4.63;;;;;;;16.00;67.81;101362.66;10419087;28;20577;-59
2023/09/30 06:47:12;;;;;;;9.98;4.88;;;;;;;16.14;67.46;101359.09;10425083;28;20045;-59
2023/09/30 06:52:13;;;;;;;9.68;4.47;;;;;;;16.29;67.41;101369.09;10424926;28;20044;-60
2023/09/30 06:57:14;;;;;;;9.80;4.88;;;;;;;16.32;67.20;101383.13;10423057;28;20555;-60
2023/09/30 07:02:16;;;;;;;13.40;5.60;;;;;;;16.46;66.84;101370.56;10403577;28;20496;-59
2023/09/30 07:07:17;;;;;;;11.07;4.78;;;;;;;16.60;66.67;101385.16;10419130;28;20060;-59
2023/09/30 07:12:20;;;;;;;9.10;5.53;;;;;;;16.67;66.70;101372.50;10423320;28;20072;-60
2023/09/30 07:17:22;;;;;;;9.27;4.32;;;;;;;16.73;66.88;101379.06;10404318;28;20488;-60
2023/09/30 07:22:23;;;;;;;12.30;5.32;;;;;;;16.85;66.46;101381.09;10422463;28;20053;-60
2023/09/30 07:27:47;;;;;;;12.95;4.72;;;;;;;17.04;66.04;101370.63;10424147;28;20040;-61
2023/09/30 07:32:50;;;;;;;11.25;4.80;;;;;;;17.22;65.93;101389.22;10418993;28;20079;-62
2023/09/30 07:37:53;;;;;;;11.82;5.80;;;;;;;17.36;65.77;101387.47;10419258;28;20057;-64
2023/09/30 07:42:56;;;;;;;10.00;4.45;;;;;;;17.49;65.65;101382.13;10426265;28;20061;-60
2023/09/30 07:48:04;;;;;;;10.90;4.20;;;;;;;17.63;65.54;101377.63;10425419;28;20053;-65
2023/09/30 07:53:06;;;;;;;8.52;3.25;;;;;;;17.76;65.02;101376.91;10425669;28;20063;-64
2023/09/30 07:58:07;;;;;;;11.95;3.20;;;;;;;17.83;64.64;101373.22;10398695;28;20428;-65
2023/09/30 08:03:09;;;;;;;6.47;2.00;;;;;;;17.80;63.96;101372.75;10418503;28;20049;-63
2023/09/30 08:08:10;;;;;;;8.20;1.25;;;;;;;17.91;63.00;101363.22;10425859;28;20052;-62
2023/09/30 08:13:12;;;;;;;7.72;1.30;;;;;;;18.09;62.36;101373.56;10427452;28;20053;-64
2023/09/30 08:18:13;;;;;;;9.68;1.25;;;;;;;18.24;61.68;101394.19;10429607;28;20056;-63
2023/09/30 08:23:15;;;;;;;6.07;1.10;;;;;;;18.31;61.61;101391.50;10428118;28;20144;-65
2023/09/30 08:28:16;;;;;;;8.77;1.23;;;;;;;18.48;60.99;101383.00;10427619;28;20049;-63
2023/09/30 08:33:18;;;;;;;7.22;1.65;;;;;;;18.55;60.35;101402.94;10428999;28;20516;-63
2023/09/30 08:38:19;;;;;;;4.53;0.80;;;;;;;18.65;59.60;101392.50;10428106;28;20061;-64
2023/09/30 08:43:27;;;;;;;6.40;1.67;;;;;;;18.72;59.45;101415.16;10426307;28;20064;-57
2023/09/30 08:48:32;;;;;;;4.22;0.60;;;;;;;18.78;58.56;101417.06;10431444;28;20053;-56
2023/09/30 08:53:34;;;;;;;7.47;1.00;;;;;;;18.88;58.33;101416.72;10426712;28;20103;-57
2023/09/30 08:58:37;;;;;;;6.18;1.08;;;;;;;18.98;58.47;101419.03;10428279;28;20046;-56
2023/09/30 09:03:39;;;;;;;4.22;0.90;;;;;;;19.11;58.29;101416.34;10426503;28;20072;-58
2023/09/30 09:08:41;;;;;;;5.28;1.40;;;;;;;19.30;58.07;101427.50;10423686;28;20064;-57
2023/09/30 09:13:49;;;;;;;6.30;1.42;;;;;;;19.34;57.12;101431.50;10425574;28;20056;-57
2023/09/30 09:18:50;;;;;;;8.27;1.02;;;;;;;19.47;57.15;101439.69;10430555;28;20053;-56
2023/09/30 09:23:53;;;;;;;9.73;1.55;;;;;;;19.67;56.10;101427.94;10425862;28;20064;-57
2023/09/30 09:29:00;;;;;;;7.25;1.45;;;;;;;19.70;55.80;101430.25;10425573;28;20056;-56
2023/09/30 09:34:14;;;;;;;4.13;1.38;;;;;;;19.73;54.99;101427.16;10422465;28;20049;-58
2023/09/30 09:39:16;;;;;;;5.95;1.55;;;;;;;19.87;54.96;101437.00;10425546;28;20050;-57
2023/09/30 09:44:22;;;;;;;5.13;1.15;;;;;;;20.00;54.96;101442.44;10423364;28;20037;-60
2023/09/30 09:49:25;;;;;;;5.20;1.23;;;;;;;19.98;54.77;101432.78;10427015;28;20069;-57
2023/09/30 09:54:29;;;;;;;5.13;1.10;;;;;;;20.08;54.23;101438.63;10427660;28;20132;-58
2023/09/30 09:59:32;;;;;;;6.05;1.00;;;;;;;19.88;53.73;101422.28;10419456;28;20144;-59
2023/09/30 10:04:33;;;;;;;4.05;1.25;;;;;;;20.12;53.39;101406.28;10429983;28;20676;-58
2023/09/30 10:09:35;;;;;;;5.55;1.25;;;;;;;20.37;53.03;101387.31;10423961;28;20056;-58
2023/09/30 10:14:36;;;;;;;4.32;1.10;;;;;;;20.67;52.46;101376.72;10426397;28;20107;-58
2023/09/30 10:20:07;;;;;;;5.43;1.10;;;;;;;21.06;51.73;101380.28;10434166;28;20356;-60
2023/09/30 10:25:33;;;;;;;7.25;1.00;;;;;;;21.30;51.26;101373.16;10424100;28;20053;-59
2023/09/30 10:30:35;;;;;;;6.50;1.00;;;;;;;21.75;50.41;101372.19;10424928;28;20041;-59
2023/09/30 10:35:37;;;;;;;3.72;1.33;;;;;;;22.06;49.90;101373.13;10426724;28;20037;-59
2023/09/30 10:40:38;;;;;;;9.50;0.98;;;;;;;22.24;49.10;101370.44;10420748;28;20057;-59
2023/09/30 10:45:44;;;;;;;5.80;1.10;;;;;;;22.33;48.64;101373.72;10419945;28;20057;-58
2023/09/30 10:50:50;;;;;;;4.32;1.20;;;;;;;22.36;48.22;101373.25;10425818;28;20132;-58
2023/09/30 10:55:55;;;;;;;3.33;0.88;;;;;;;22.39;48.41;101367.31;10421713;28;20411;-59
2023/09/30 11:00:57;;;;;;;5.85;1.75;;;;;;;22.48;48.01;101367.84;10425376;28;20045;-59
2023/09/30 11:05:59;;;;;;;4.25;1.30;;;;;;;22.44;47.90;101367.47;10417214;28;20061;-61
2023/09/30 11:11:14;;;;;;;4.82;1.27;;;;;;;22.29;48.12;101361.53;10425034;28;20056;-60
2023/09/30 11:16:16;;;;;;;5.47;1.13;;;;;;;22.19;47.77;101378.47;10421388;28;20049;-61
2023/09/30 11:21:17;;;;;;;4.18;0.95;;;;;;;22.49;47.28;101385.94;10425423;28;20059;-60
2023/09/30 11:26:31;;;;;;;4.82;0.88;;;;;;;22.90;45.71;101373.38;10423352;28;20057;-60
2023/09/30 11:31:34;;;;;;;4.60;1.13;;;;;;;22.61;46.64;101370.41;10416733;28;20056;-60
2023/09/30 11:36:54;;;;;;;4.90;0.95;;;;;;;22.50;46.69;101365.72;10422166;28;20138;-60
2023/09/30 11:41:57;;;;;;;5.22;1.60;;;;;;;22.75;46.51;101365.59;10420055;28;20046;-60
2023/09/30 11:47:04;;;;;;;4.72;1.25;;;;;;;23.24;45.72;101368.25;10417630;28;20045;-60
2023/09/30 11:52:13;;;;;;;5.57;1.00;;;;;;;23.28;44.61;101361.22;10421936;28;20055;-60
2023/09/30 11:57:16;;;;;;;4.68;1.55;;;;;;;24.08;43.73;101357.09;10436234;28;20049;-60
2023/09/30 12:02:18;;;;;;;4.28;0.93;;;;;;;25.02;42.69;101351.31;10418102;28;20053;-61
2023/09/30 12:07:19;;;;;;;5.05;1.15;;;;;;;25.58;41.99;101336.81;10421922;28;20073;-62
2023/09/30 12:12:21;;;;;;;6.25;0.93;;;;;;;25.70;41.65;101340.31;10416228;28;20564;-57
2023/09/30 12:17:22;;;;;;;4.28;1.38;;;;;;;25.93;40.72;101333.78;10424428;28;20053;-59
2023/09/30 12:22:24;;;;;;;5.75;1.10;;;;;;;26.22;40.27;101326.16;10423186;28;20037;-59
2023/09/30 12:27:25;;;;;;;5.63;1.25;;;;;;;26.44;39.28;101322.53;10418706;28;20388;-57
2023/09/30 12:32:26;;;;;;;4.20;1.05;;;;;;;26.54;39.30;101311.66;10419677;28;20079;-58
2023/09/30 12:37:29;;;;;;;6.10;1.42;;;;;;;26.86;38.62;101320.00;10419266;28;20087;-58
2023/09/30 12:42:30;;;;;;;4.78;0.80;;;;;;;26.34;39.07;101314.16;10415025;28;20057;-57
2023/09/30 12:47:31;;;;;;;4.38;0.90;;;;;;;26.16;38.67;101307.06;10421148;28;20929;-57
2023/09/30 12:52:33;;;;;;;4.50;0.90;;;;;;;26.22;38.35;101315.13;10422553;28;20107;-61
2023/09/30 12:57:35;;;;;;;3.25;0.68;;;;;;;26.55;37.73;101307.78;10428244;28;20041;-58
2023/09/30 13:02:36;;;;;;;3.85;1.00;;;;;;;26.59;37.69;101313.66;10436500;28;20044;-58
2023/09/30 13:07:38;;;;;;;4.13;0.75;;;;;;;26.55;37.41;101315.22;10423349;28;20092;-58
2023/09/30 13:12:39;;;;;;;3.10;0.68;;;;;;;26.80;37.00;101315.53;10426492;28;20041;-60
2023/09/30 13:17:45;;;;;;;3.03;0.95;;;;;;;26.55;37.55;101301.44;10430746;28;20220;-56
2023/09/30 13:22:47;;;;;;;3.72;1.20;;;;;;;26.28;37.75;101300.31;10433909;28;20049;-58
2023/09/30 13:27:48;;;;;;;6.22;0.90;;;;;;;26.04;37.84;101283.19;10422038;28;20085;-58
2023/09/30 13:32:50;;;;;;;3.55;0.90;;;;;;;26.22;37.65;101271.00;10423401;28;20103;-59
2023/09/30 13:37:52;;;;;;;3.03;0.90;;;;;;;26.58;37.53;101263.19;10427794;28;20057;-58
2023/09/30 13:42:53;;;;;;;6.10;0.88;;;;;;;26.95;36.23;101278.13;10423742;28;20139;-58
2023/09/30 13:47:55;;;;;;;2.35;0.60;;;;;;;26.92;36.71;101279.47;10428127;28;20500;-60
2023/09/30 13:52:56;;;;;;;3.13;0.70;;;;;;;27.19;36.26;101278.56;10422209;28;20427;-58
2023/09/30 13:57:58;;;;;;;3.40;0.90;;;;;;;27.37;35.30;101266.31;10424491;28;20056;-58
2023/09/30 14:03:00;;;;;;;4.65;1.08;;;;;;;27.68;34.69;101254.34;10427185;28;20072;-58
2023/09/30 14:08:02;;;;;;;2.47;0.60;;;;;;;28.15;34.39;101254.56;10421981;28;20384;-58
2023/09/30 14:13:03;;;;;;;1.70;0.50;;;;;;;28.44;33.59;101250.22;10424734;28;20080;-59
2023/09/30 14:18:06;;;;;;;2.25;0.60;;;;;;;29.67;31.67;101244.59;10424124;28;20044;-58
2023/09/30 14:23:07;;;;;;;2.92;0.90;;;;;;;30.26;31.13;101239.38;10423469;28;20150;-59
2023/09/30 14:28:09;;;;;;;2.53;0.73;;;;;;;29.96;30.78;101232.88;10420305;28;20057;-59
2023/09/30 14:33:10;;;;;;;2.97;0.70;;;;;;;29.56;31.44;101229.16;10426790;28;20136;-65
2023/09/30 14:38:12;;;;;;;6.07;0.90;;;;;;;29.72;30.71;101229.09;10420688;28;20108;-62
2023/09/30 14:43:13;;;;;;;3.08;1.00;;;;;;;29.04;30.57;101228.38;10426833;28;20056;-64
2023/09/30 14:48:15;;;;;;;3.00;0.60;;;;;;;28.83;31.28;101230.34;10426662;28;20064;-61
2023/09/30 14:53:16;;;;;;;4.53;0.85;;;;;;;28.18;31.30;101226.34;10422502;28;20049;-64
2023/09/30 14:58:18;;;;;;;1.33;0.80;;;;;;;27.78;31.91;101225.09;10425933;28;20159;-63
2023/09/30 15:03:23;;;;;;;2.70;0.60;;;;;;;26.71;32.09;101228.78;10423270;28;20047;-64
2023/09/30 15:08:24;;;;;;;2.67;0.50;;;;;;;26.21;33.12;101227.19;10421089;28;20088;-63
2023/09/30 15:13:26;;;;;;;3.15;0.40;;;;;;;25.86;33.02;101229.22;10420564;28;20045;-64
2023/09/30 15:18:28;;;;;;;4.20;0.57;;;;;;;25.33;33.20;101227.97;10419970;28;20048;-65
2023/09/30 15:23:32;;;;;;;1.30;0.57;;;;;;;25.05;33.29;101231.66;10420290;28;20450;-60
2023/09/30 15:28:34;;;;;;;3.28;0.50;;;;;;;24.95;33.22;101221.31;10424316;28;20049;-62
2023/09/30 15:33:35;;;;;;;1.73;0.60;;;;;;;24.79;33.79;101222.16;10421290;28;20049;-62
2023/09/30 15:38:37;;;;;;;2.20;0.70;;;;;;;24.53;33.93;101227.22;10426837;28;20484;-64
2023/09/30 15:43:38;;;;;;;1.85;0.52;;;;;;;24.30;35.05;101239.13;10420165;28;20060;-64
2023/09/30 15:48:40;;;;;;;1.20;0.40;;;;;;;23.86;35.22;101236.06;10422317;28;20041;-61
2023/09/30 15:53:41;;;;;;;1.75;0.40;;;;;;;23.26;35.58;101239.91;10420832;28;20045;-64
2023/09/30 15:58:43;;;;;;;2.33;0.55;;;;;;;23.17;36.23;101245.75;10418662;28;20049;-64
2023/09/30 16:03:44;;;;;;;3.35;1.15;;;;;;;23.13;36.95;101252.78;10421309;28;20048;-64
2023/09/30 16:08:45;;;;;;;4.80;0.95;;;;;;;22.99;36.78;101248.59;10424136;28;20534;-62
2023/09/30 16:13:47;;;;;;;3.08;0.60;;;;;;;22.74;37.10;101248.78;10401510;28;20059;-63
2023/09/30 16:18:48;;;;;;;2.78;0.55;;;;;;;22.65;37.67;101244.69;10420927;28;20041;-65
2023/09/30 16:23:50;;;;;;;2.75;0.80;;;;;;;22.52;37.70;101254.78;10421604;28;20569;-64
2023/09/30 16:28:51;;;;;;;3.40;0.70;;;;;;;22.29;38.27;101251.97;10428000;28;20049;-62
2023/09/30 16:33:52;;;;;;;3.30;0.70;;;;;;;21.87;39.38;101238.97;10427304;28;20048;-64
2023/09/30 16:38:55;;;;;;;3.10;0.57;;;;;;;21.71;39.55;101234.97;10431436;28;20064;-64
2023/09/30 16:43:56;;;;;;;3.40;0.75;;;;;;;21.62;40.39;101236.31;10424721;28;20047;-64
2023/09/30 16:48:58;;;;;;;4.75;1.00;;;;;;;21.44;40.61;101247.25;10430871;28;20091;-64
2023/09/30 16:53:59;;;;;;;3.55;1.52;;;;;;;21.25;41.47;101249.09;10431071;28;20075;-60
2023/09/30 16:59:01;;;;;;;3.25;1.90;;;;;;;21.04;41.96;101242.97;10415553;28;20050;-59
2023/09/30 17:04:03;;;;;;;3.33;1.45;;;;;;;20.82;42.84;101245.25;10429010;28;20098;-60
2023/09/30 17:09:06;;;;;;;6.70;1.75;;;;;;;20.65;43.57;101257.78;10421170;28;20041;-60
2023/09/30 17:14:07;;;;;;;6.63;0.90;;;;;;;20.48;43.85;101255.56;10424989;28;20696;-57
2023/09/30 17:19:08;;;;;;;2.22;0.73;;;;;;;20.31;44.48;101259.84;10422380;28;20139;-57
2023/09/30 17:24:10;;;;;;;2.05;0.73;;;;;;;20.12;45.39;101273.38;10434175;28;20081;-57
2023/09/30 17:29:12;;;;;;;1.05;0.60;;;;;;;19.94;45.65;101262.31;10422125;28;20040;-56
2023/09/30 17:34:13;;;;;;;3.05;0.80;;;;;;;19.75;45.72;101267.63;10424044;28;20051;-57
2023/09/30 17:39:15;;;;;;;3.17;1.00;;;;;;;19.57;46.28;101272.91;10418594;28;20496;-57
2023/09/30 17:44:17;;;;;;;3.83;1.20;;;;;;;19.39;46.35;101273.53;10428001;28;20140;-56
2023/09/30 17:49:18;;;;;;;2.42;0.70;;;;;;;19.20;46.83;101286.16;10430948;28;20054;-57
2023/09/30 17:54:20;;;;;;;4.00;1.20;;;;;;;19.01;47.32;101288.63;10425819;28;20124;-57
2023/09/30 17:59:21;;;;;;;4.80;1.30;;;;;;;18.78;47.77;101278.13;10421237;28;20049;-57
2023/09/30 18:04:23;;;;;;;6.95;3.17;;;;;;;18.51;48.08;101290.00;10423986;28;20049;-58
2023/09/30 18:09:25;;;;;;;3.03;1.50;;;;;;;18.39;48.50;101296.03;10420078;28;20045;-58
2023/09/30 18:14:27;;;;;;;8.27;2.38;;;;;;;18.36;48.85;101284.72;10418458;28;20064;-57
2023/09/30 18:19:28;;;;;;;5.15;1.67;;;;;;;18.26;49.17;101287.00;10426566;28;20040;-57
2023/09/30 18:24:30;;;;;;;4.07;2.00;;;;;;;18.15;49.41;101291.16;10423665;28;20073;-57
2023/09/30 18:29:31;;;;;;;4.95;2.30;;;;;;;18.06;49.84;101276.03;10422606;28;20519;-57
2023/09/30 18:34:32;;;;;;;5.35;2.28;;;;;;;17.98;50.18;101280.59;10421455;28;20705;-58
2023/09/30 18:39:34;;;;;;;5.47;1.95;;;;;;;17.90;50.72;101277.22;10424666;28;20315;-58
2023/09/30 18:44:35;;;;;;;6.03;1.85;;;;;;;17.74;51.15;101281.06;10425738;28;20075;-58
2023/09/30 18:49:37;;;;;;;7.85;3.15;;;;;;;17.61;51.49;101277.25;10422920;28;20048;-58
2023/09/30 18:54:38;;;;;;;5.75;1.98;;;;;;;17.44;51.92;101279.41;10425190;28;20049;-58
2023/09/30 18:59:40;;;;;;;4.43;1.98;;;;;;;17.22;52.89;101294.09;10420189;28;20037;-57
2023/09/30 19:04:41;;;;;;;4.30;2.15;;;;;;;17.12;53.07;101294.44;10423014;28;20052;-57
2023/09/30 19:09:43;;;;;;;6.90;1.73;;;;;;;17.03;53.71;101287.47;10429977;28;20128;-56
2023/09/30 19:14:44;;;;;;;7.47;2.17;;;;;;;16.91;54.09;101298.00;10419909;28;20106;-57
2023/09/30 19:19:46;;;;;;;7.15;2.58;;;;;;;16.61;54.86;101292.66;10420585;28;20379;-56
2023/09/30 19:24:49;;;;;;;6.20;2.15;;;;;;;16.49;55.08;101286.06;10426751;28;20127;-58
2023/09/30 19:29:50;;;;;;;5.05;2.40;;;;;;;16.35;55.49;101290.50;10423965;28;20049;-57
2023/09/30 19:34:53;;;;;;;5.43;2.20;;;;;;;16.19;56.01;101291.56;10423562;28;20044;-56
2023/09/30 19:39:54;;;;;;;5.97;2.38;;;;;;;16.09;56.27;101303.72;10422982;28;20040;-56
2023/09/30 19:44:56;;;;;;;7.03;3.28;;;;;;;16.04;56.71;101298.88;10422416;28;20094;-56
2023/09/30 19:49:57;;;;;;;5.20;2.70;;;;;;;16.02;56.99;101306.38;10423694;28;20060;-57
2023/09/30 19:54:59;;;;;;;6.68;2.20;;;;;;;15.95;57.05;101308.97;10410092;28;20495;-57
2023/09/30 20:00:00;;;;;;;5.72;2.03;;;;;;;15.92;57.28;101306.66;10425747;28;20049;-57
2023/09/30 20:05:05;;;;;;;5.18;2.10;;;;;;;15.88;57.24;101302.63;10428683;28;20052;-56
2023/09/30 20:10:08;;;;;;;4.35;2.05;;;;;;;15.71;58.03;101298.38;10411566;28;20469;-57
2023/09/30 20:15:10;;;;;;;4.68;2.30;;;;;;;15.67;57.90;101289.78;10429433;28;20036;-57
2023/09/30 20:20:16;;;;;;;8.05;3.30;;;;;;;15.62;58.13;101284.94;10431062;28;20041;-57
2023/09/30 20:25:17;;;;;;;3.85;1.98;;;;;;;15.56;58.64;101292.94;10430113;28;20059;-56
2023/09/30 20:30:19;;;;;;;5.85;1.95;;;;;;;15.38;58.91;101305.00;10429171;28;20891;-54
2023/09/30 20:35:20;;;;;;;6.05;2.47;;;;;;;15.35;59.11;101310.78;10426153;28;20152;-56
2023/09/30 20:40:22;;;;;;;6.10;2.20;;;;;;;15.30;59.37;101315.88;10430765;28;20140;-54
2023/09/30 20:45:24;;;;;;;8.13;2.40;;;;;;;15.07;60.17;101319.47;10428761;28;20147;-54
2023/09/30 20:50:25;;;;;;;12.93;2.83;;;;;;;15.02;60.45;101321.03;10424749;28;20482;-55
2023/09/30 20:55:31;;;;;;;6.70;2.88;;;;;;;14.98;60.57;101323.25;10424638;28;20373;-56
2023/09/30 21:00:34;;;;;;;8.02;2.60;;;;;;;15.01;60.47;101327.50;10417274;28;20045;-55
2023/09/30 21:05:39;;;;;;;10.45;2.70;;;;;;;15.00;60.72;101328.50;10423874;28;20053;-56
2023/09/30 21:10:40;;;;;;;6.95;3.08;;;;;;;14.94;60.63;101331.94;10425536;28;20049;-55
2023/09/30 21:15:41;;;;;;;9.80;2.65;;;;;;;14.86;61.00;101328.25;10428262;28;20407;-55
2023/09/30 21:20:43;;;;;;;7.88;2.67;;;;;;;14.79;61.17;101324.59;10408230;28;20088;-56
2023/09/30 21:25:44;;;;;;;8.20;3.85;;;;;;;14.75;61.20;101309.75;10420752;28;20056;-54
2023/09/30 21:30:46;;;;;;;6.82;2.90;;;;;;;14.72;61.44;101323.63;10432539;28;20080;-56
2023/09/30 21:35:56;;;;;;;6.22;3.03;;;;;;;14.61;61.70;101319.47;10415968;28;20052;-56
2023/09/30 21:40:57;;;;;;;4.25;2.13;;;;;;;14.53;61.91;101326.75;10431921;28;20053;-56
2023/09/30 21:45:59;;;;;;;4.18;2.10;;;;;;;14.48;61.84;101325.44;10428553;28;20120;-56
2023/09/30 21:51:01;;;;;;;5.13;2.90;;;;;;;14.43;62.10;101330.50;10424726;28;20057;-56
2023/09/30 21:56:04;;;;;;;6.85;2.90;;;;;;;14.38;62.31;101323.97;10413300;28;20048;-57
2023/09/30 22:01:06;;;;;;;8.70;3.03;;;;;;;14.34;62.39;101328.06;10421042;28;20096;-57
2023/09/30 22:06:08;;;;;;;5.72;2.67;;;;;;;14.28;62.50;101333.13;10427140;28;20041;-57
2023/09/30 22:11:10;;;;;;;6.55;2.63;;;;;;;14.26;62.51;101320.81;10408633;28;20407;-57
2023/09/30 22:16:11;;;;;;;5.72;2.88;;;;;;;14.20;62.81;101324.22;10407322;28;20484;-58
2023/09/30 22:21:13;;;;;;;7.00;2.63;;;;;;;14.05;63.17;101332.22;10426886;28;20186;-57
2023/09/30 22:26:14;;;;;;;7.00;2.65;;;;;;;13.99;63.37;101331.06;10424157;28;20049;-56
2023/09/30 22:31:16;;;;;;;8.63;2.67;;;;;;;13.92;63.74;101327.38;10427115;28;20072;-58
2023/09/30 22:36:17;;;;;;;9.18;3.20;;;;;;;13.91;63.42;101311.31;10427679;28;20515;-56
2023/09/30 22:41:20;;;;;;;5.90;2.65;;;;;;;13.88;63.47;101318.78;10422453;28;20053;-57
2023/09/30 22:46:22;;;;;;;7.13;2.67;;;;;;;13.81;63.52;101306.97;10424580;28;20060;-58
2023/09/30 22:51:24;;;;;;;6.47;2.95;;;;;;;13.79;63.41;101317.09;10418780;28;20107;-57
2023/09/30 22:56:25;;;;;;;7.90;2.78;;;;;;;13.78;63.53;101314.56;10421013;28;20060;-56
2023/09/30 23:01:27;;;;;;;7.05;2.95;;;;;;;13.74;63.63;101315.94;10424378;28;20060;-56
2023/09/30 23:06:29;;;;;;;6.30;3.50;;;;;;;13.73;63.73;101319.66;10418263;28;20049;-56
2023/09/30 23:11:31;;;;;;;8.55;4.30;;;;;;;13.70;63.90;101326.22;10423502;28;20057;-57